Time;durP1;ratioP1;P1;durP2;ratioP2;P2;SDS_P1;SDS_P2;PMS_P1;PMS_P2;Temp;Humidity;BMP_temperature;BMP_pressure;BME280_temperature;BME280_humidity;BME280_pressure;Samples;Min_cycle;Max_cycle;Signal;HPM_P1;HPM_P2
2024/03/06 00:04:33;;;;;;;3.90;3.05;;;;;;;;;;10139590;28;20082;-75
2024/03/06 00:09:27;;;;;;;3.47;2.03;;;;;;;;;;10145722;28;20062;-75
2024/03/06 00:14:21;;;;;;;4.43;2.15;;;;;;;;;;10146382;28;20060;-75
2024/03/06 00:19:18;;;;;;;6.95;2.17;;;;;;;;;;10146323;28;20144;-78
2024/03/06 00:24:13;;;;;;;3.35;2.38;;;;;;;;;;10144909;28;20106;-76
2024/03/06 00:29:07;;;;;;;4.10;2.65;;;;;;;;;;10144697;28;20135;-75
2024/03/06 00:34:00;;;;;;;5.85;3.15;;;;;;;;;;10145808;28;20539;-75
2024/03/06 00:38:54;;;;;;;4.38;2.80;;;;;;;;;;10145535;28;20056;-75
2024/03/06 00:43:48;;;;;;;4.57;3.00;;;;;;;;;;10144825;28;20171;-76
2024/03/06 00:48:43;;;;;;;8.52;3.05;;;;;;;;;;10144542;28;20488;-76
2024/03/06 00:53:36;;;;;;;4.85;3.72;;;;;;;;;;10142288;28;20044;-76
2024/03/06 00:58:30;;;;;;;3.40;2.58;;;;;;;;;;10144633;28;20051;-76
2024/03/06 01:03:24;;;;;;;8.25;4.38;;;;;;;;;;10144768;28;20506;-76
2024/03/06 01:08:19;;;;;;;5.40;3.67;;;;;;;;;;10144868;28;20048;-76
2024/03/06 01:13:13;;;;;;;3.60;3.00;;;;;;;;;;10144960;28;20049;-75
2024/03/06 01:18:07;;;;;;;4.65;4.10;;;;;;;;;;10133518;28;20061;-76
2024/03/06 01:23:02;;;;;;;4.70;3.63;;;;;;;;;;10143942;28;20507;-76
2024/03/06 01:27:55;;;;;;;5.47;3.38;;;;;;;;;;10136313;28;20401;-78
2024/03/06 01:32:49;;;;;;;6.18;3.72;;;;;;;;;;10142436;28;20049;-75
2024/03/06 01:37:44;;;;;;;8.02;3.92;;;;;;;;;;10140118;28;20053;-75
2024/03/06 01:42:38;;;;;;;4.72;3.13;;;;;;;;;;10140986;28;20048;-75
2024/03/06 01:47:33;;;;;;;3.35;3.05;;;;;;;;;;10147387;28;20412;-77
2024/03/06 01:52:27;;;;;;;6.28;3.35;;;;;;;;;;10148610;28;20057;-77
2024/03/06 01:57:20;;;;;;;3.53;3.22;;;;;;;;;;10147322;28;20098;-75
2024/03/06 02:02:14;;;;;;;8.90;4.03;;;;;;;;;;10148471;28;20064;-78
2024/03/06 02:07:11;;;;;;;4.35;3.78;;;;;;;;;;10148269;28;20057;-76
2024/03/06 02:12:08;;;;;;;9.55;3.67;;;;;;;;;;10141554;28;20052;-77
2024/03/06 02:17:02;;;;;;;5.60;3.63;;;;;;;;;;10148846;28;20063;-78
2024/03/06 02:21:56;;;;;;;8.85;3.97;;;;;;;;;;10147715;28;20493;-77
2024/03/06 02:26:50;;;;;;;9.23;4.57;;;;;;;;;;10147878;28;20508;-77
2024/03/06 02:31:45;;;;;;;6.82;3.80;;;;;;;;;;10139110;28;20109;-77
2024/03/06 02:36:39;;;;;;;6.22;5.45;;;;;;;;;;10147576;28;20064;-77
2024/03/06 02:41:32;;;;;;;6.20;5.57;;;;;;;;;;10146227;28;20047;-77
2024/03/06 02:46:27;;;;;;;8.00;6.35;;;;;;;;;;10143169;28;20052;-77
2024/03/06 02:51:22;;;;;;;8.20;6.68;;;;;;;;;;10143525;28;20076;-77
2024/03/06 02:56:39;;;;;;;8.02;6.72;;;;;;;;;;10146363;28;20078;-77
2024/03/06 03:01:33;;;;;;;6.47;5.80;;;;;;;;;;10139276;28;20553;-77
2024/03/06 03:06:29;;;;;;;9.27;6.35;;;;;;;;;;10145134;28;20052;-77
2024/03/06 03:11:22;;;;;;;8.75;6.65;;;;;;;;;;10145625;28;20061;-76
2024/03/06 03:16:20;;;;;;;9.18;7.18;;;;;;;;;;10145678;28;20568;-76
2024/03/06 03:21:15;;;;;;;9.15;7.55;;;;;;;;;;10145681;28;20431;-77
2024/03/06 03:26:12;;;;;;;7.65;6.85;;;;;;;;;;10143726;28;20056;-77
2024/03/06 03:31:08;;;;;;;7.72;6.68;;;;;;;;;;10144847;28;20056;-76
2024/03/06 03:36:03;;;;;;;6.07;5.50;;;;;;;;;;10143858;28;20067;-76
2024/03/06 03:40:57;;;;;;;7.15;6.35;;;;;;;;;;10139496;28;20049;-77
2024/03/06 03:45:51;;;;;;;7.68;5.57;;;;;;;;;;10144333;28;20123;-77
2024/03/06 03:50:45;;;;;;;8.27;6.45;;;;;;;;;;10145167;28;20048;-77
2024/03/06 03:55:39;;;;;;;7.55;6.75;;;;;;;;;;10135764;28;20078;-76
2024/03/06 04:00:33;;;;;;;5.88;5.38;;;;;;;;;;10144554;28;20052;-75
2024/03/06 04:05:27;;;;;;;5.53;5.03;;;;;;;;;;10143304;28;20135;-77
2024/03/06 04:10:21;;;;;;;6.13;5.28;;;;;;;;;;10143522;28;20048;-77
2024/03/06 04:15:16;;;;;;;4.28;3.88;;;;;;;;;;10143576;28;20057;-77
2024/03/06 04:20:11;;;;;;;7.05;4.80;;;;;;;;;;10144121;28;20052;-76
2024/03/06 04:25:09;;;;;;;5.20;4.57;;;;;;;;;;10142105;28;20139;-76
2024/03/06 04:30:06;;;;;;;4.38;4.00;;;;;;;;;;10142609;28;20079;-77
2024/03/06 04:34:59;;;;;;;3.67;3.38;;;;;;;;;;10142870;28;20064;-76
2024/03/06 04:39:54;;;;;;;3.70;3.40;;;;;;;;;;10143390;28;20056;-76
2024/03/06 04:44:48;;;;;;;4.40;4.00;;;;;;;;;;10133531;28;20050;-76
2024/03/06 04:49:42;;;;;;;4.38;3.97;;;;;;;;;;10142473;28;20455;-76
2024/03/06 04:54:37;;;;;;;5.10;4.60;;;;;;;;;;10137519;28;20052;-75
2024/03/06 04:59:31;;;;;;;5.13;4.70;;;;;;;;;;10140263;28;20088;-75
2024/03/06 05:04:25;;;;;;;6.30;4.60;;;;;;;;;;10140305;28;20070;-76
2024/03/06 05:09:36;;;;;;;8.32;6.25;;;;;;;;;;10142202;28;20047;-76
2024/03/06 05:14:47;;;;;;;6.70;6.05;;;;;;;;;;10123659;28;20034;-75
2024/03/06 05:19:57;;;;;;;6.43;5.65;;;;;;;;;;10141918;28;20048;-75
2024/03/06 05:25:08;;;;;;;7.10;5.22;;;;;;;;;;10138074;28;20048;-75
2024/03/06 05:30:19;;;;;;;7.32;6.63;;;;;;;;;;10141729;28;20116;-77
2024/03/06 05:35:30;;;;;;;9.73;7.10;;;;;;;;;;10135998;28;20044;-76
2024/03/06 05:40:45;;;;;;;7.15;6.45;;;;;;;;;;10139739;28;20044;-77
2024/03/06 05:45:56;;;;;;;10.63;9.35;;;;;;;;;;10140363;28;20052;-77
2024/03/06 05:51:07;;;;;;;12.00;10.70;;;;;;;;;;10141277;28;20045;-76
2024/03/06 05:56:18;;;;;;;36.58;32.75;;;;;;;;;;10141699;28;20047;-77
2024/03/06 06:01:30;;;;;;;25.73;22.92;;;;;;;;;;10140723;28;20470;-76
2024/03/06 06:06:24;;;;;;;19.73;17.73;;;;;;;;;;10141388;28;20152;-76
2024/03/06 06:11:19;;;;;;;22.58;16.13;;;;;;;;;;10138807;28;20072;-78
2024/03/06 06:16:13;;;;;;;51.47;40.30;;;;;;;;;;10140321;28;20052;-76
2024/03/06 06:21:08;;;;;;;54.03;40.70;;;;;;;;;;10139797;28;20091;-77
2024/03/06 06:26:02;;;;;;;17.67;11.35;;;;;;;;;;10139503;28;20144;-77
2024/03/06 06:30:56;;;;;;;10.07;7.32;;;;;;;;;;10144071;28;20051;-75
2024/03/06 06:35:51;;;;;;;9.00;6.82;;;;;;;;;;10137284;28;20037;-76
2024/03/06 06:40:46;;;;;;;16.25;13.27;;;;;;;;;;10142459;28;20044;-75
2024/03/06 06:45:40;;;;;;;12.98;9.70;;;;;;;;;;10137290;28;20504;-74
2024/03/06 06:50:35;;;;;;;9.30;6.18;;;;;;;;;;10145969;28;20412;-75
2024/03/06 06:55:29;;;;;;;17.00;10.20;;;;;;;;;;10140314;28;20050;-75
2024/03/06 07:00:25;;;;;;;7.78;6.13;;;;;;;;;;10138606;28;20406;-73
2024/03/06 07:05:19;;;;;;;4.28;3.78;;;;;;;;;;10144379;28;20060;-75
2024/03/06 07:10:14;;;;;;;5.78;3.20;;;;;;;;;;10145250;28;20061;-76
2024/03/06 07:15:08;;;;;;;9.07;6.38;;;;;;;;;;10145262;28;20041;-77
2024/03/06 07:20:04;;;;;;;6.75;5.78;;;;;;;;;;10144113;28;20088;-77
2024/03/06 07:24:59;;;;;;;14.40;12.23;;;;;;;;;;10145349;28;20459;-75
2024/03/06 07:29:53;;;;;;;7.25;5.47;;;;;;;;;;10145405;28;20060;-75
2024/03/06 07:34:50;;;;;;;8.90;5.50;;;;;;;;;;10145911;28;20052;-76
2024/03/06 07:39:45;;;;;;;10.63;9.57;;;;;;;;;;10144023;28;20056;-77
2024/03/06 07:44:42;;;;;;;14.13;6.75;;;;;;;;;;10142337;28;21671;-76
2024/03/06 07:49:36;;;;;;;6.88;5.07;;;;;;;;;;10140080;28;20040;-75
2024/03/06 07:54:30;;;;;;;8.75;5.60;;;;;;;;;;10140315;28;20512;-76
2024/03/06 07:59:24;;;;;;;8.30;5.78;;;;;;;;;;10139362;28;20048;-76
2024/03/06 08:04:18;;;;;;;7.55;4.72;;;;;;;;;;10140009;28;20052;-77
2024/03/06 08:09:13;;;;;;;4.78;4.38;;;;;;;;;;10138796;28;20040;-77
2024/03/06 08:14:06;;;;;;;3.03;1.95;;;;;;;;;;10144164;28;20111;-76
2024/03/06 08:19:01;;;;;;;5.43;2.88;;;;;;;;;;10143165;28;20427;-76
2024/03/06 08:23:54;;;;;;;7.35;5.72;;;;;;;;;;10143007;28;20144;-76
2024/03/06 08:28:48;;;;;;;8.30;6.03;;;;;;;;;;10141609;28;20063;-75
2024/03/06 08:33:44;;;;;;;6.90;5.57;;;;;;;;;;10139393;28;20048;-74
2024/03/06 08:38:40;;;;;;;8.30;4.85;;;;;;;;;;10142207;28;20607;-76
2024/03/06 08:43:35;;;;;;;5.78;4.65;;;;;;;;;;10141881;28;20139;-75
2024/03/06 08:48:29;;;;;;;4.53;4.13;;;;;;;;;;10136988;28;20500;-78
2024/03/06 08:53:23;;;;;;;3.97;3.63;;;;;;;;;;10141635;28;20106;-75
2024/03/06 08:58:20;;;;;;;4.25;3.50;;;;;;;;;;10132450;28;20102;-75
2024/03/06 09:03:15;;;;;;;4.90;3.20;;;;;;;;;;10140121;28;20083;-75
2024/03/06 09:08:12;;;;;;;7.07;3.45;;;;;;;;;;10140002;28;20431;-75
2024/03/06 09:13:07;;;;;;;3.90;3.33;;;;;;;;;;10140852;28;20408;-77
2024/03/06 09:18:01;;;;;;;4.95;3.45;;;;;;;;;;10141978;28;20060;-76
2024/03/06 09:22:56;;;;;;;4.35;3.92;;;;;;;;;;10140394;28;20068;-76
2024/03/06 09:27:51;;;;;;;6.95;4.05;;;;;;;;;;10139873;28;20048;-76
2024/03/06 09:32:45;;;;;;;6.00;3.85;;;;;;;;;;10137353;28;20381;-76
2024/03/06 09:37:40;;;;;;;3.85;3.55;;;;;;;;;;10139988;28;20045;-76
2024/03/06 09:42:33;;;;;;;8.60;6.78;;;;;;;;;;10139360;28;20044;-75
2024/03/06 09:47:31;;;;;;;4.50;3.78;;;;;;;;;;10140717;28;20041;-74
2024/03/06 09:52:25;;;;;;;5.97;3.95;;;;;;;;;;10113520;28;20056;-75
2024/03/06 09:57:20;;;;;;;5.50;4.20;;;;;;;;;;10139999;28;20045;-75
2024/03/06 10:02:31;;;;;;;6.60;4.63;;;;;;;;;;10140204;28;20051;-76
2024/03/06 10:07:27;;;;;;;4.70;4.22;;;;;;;;;;10144448;28;20456;-76
2024/03/06 10:12:22;;;;;;;4.80;4.35;;;;;;;;;;10146996;28;20059;-76
2024/03/06 10:17:23;;;;;;;5.68;4.55;;;;;;;;;;10146072;28;20492;-76
2024/03/06 10:22:24;;;;;;;7.88;4.60;;;;;;;;;;10136192;28;20147;-76
2024/03/06 10:27:18;;;;;;;5.28;4.78;;;;;;;;;;10149029;28;20048;-76
2024/03/06 10:32:21;;;;;;;5.05;4.10;;;;;;;;;;10138393;28;20132;-77
2024/03/06 10:37:31;;;;;;;6.45;4.05;;;;;;;;;;10141961;28;20052;-76
2024/03/06 10:42:29;;;;;;;4.18;3.70;;;;;;;;;;10147081;28;20047;-77
2024/03/06 10:47:23;;;;;;;6.32;4.22;;;;;;;;;;10130677;28;20497;-76
2024/03/06 10:52:19;;;;;;;5.28;4.63;;;;;;;;;;10126855;28;20053;-76
2024/03/06 10:57:14;;;;;;;7.95;4.70;;;;;;;;;;10145387;28;20052;-74
2024/03/06 11:02:09;;;;;;;7.13;6.00;;;;;;;;;;10149836;28;20056;-76
2024/03/06 11:07:05;;;;;;;4.43;3.83;;;;;;;;;;10148581;28;20058;-76
2024/03/06 11:11:58;;;;;;;6.03;4.00;;;;;;;;;;10148797;28;20135;-77
2024/03/06 11:17:01;;;;;;;5.53;4.88;;;;;;;;;;10146870;28;20048;-74
2024/03/06 11:21:55;;;;;;;6.80;5.88;;;;;;;;;;10136026;28;20064;-75
2024/03/06 11:27:00;;;;;;;5.18;4.68;;;;;;;;;;10147780;28;20058;-75
2024/03/06 11:32:10;;;;;;;4.55;4.15;;;;;;;;;;10147662;28;20044;-75
2024/03/06 11:37:07;;;;;;;6.22;5.63;;;;;;;;;;10132049;28;20045;-76
2024/03/06 11:42:01;;;;;;;6.70;6.03;;;;;;;;;;10147295;28;20052;-75
2024/03/06 11:46:58;;;;;;;5.90;5.28;;;;;;;;;;10146726;28;20063;-75
2024/03/06 11:52:01;;;;;;;7.13;5.43;;;;;;;;;;10146814;28;20062;-76
2024/03/06 11:56:56;;;;;;;5.72;4.80;;;;;;;;;;10140885;28;20385;-76
2024/03/06 12:01:50;;;;;;;4.68;4.18;;;;;;;;;;10140711;28;20048;-75
2024/03/06 12:06:43;;;;;;;5.32;4.82;;;;;;;;;;10141143;28;20463;-76
2024/03/06 12:11:38;;;;;;;5.32;4.82;;;;;;;;;;10143438;28;20048;-75
2024/03/06 12:16:31;;;;;;;4.15;3.75;;;;;;;;;;10142946;28;20064;-76
2024/03/06 12:21:43;;;;;;;5.38;4.88;;;;;;;;;;10140847;28;20135;-76
2024/03/06 12:26:37;;;;;;;5.30;4.10;;;;;;;;;;10124487;28;20051;-76
2024/03/06 12:31:31;;;;;;;6.10;3.70;;;;;;;;;;10141711;28;20055;-76
2024/03/06 12:36:26;;;;;;;8.10;5.05;;;;;;;;;;10138753;28;20070;-76
2024/03/06 12:41:20;;;;;;;4.93;4.05;;;;;;;;;;10132716;28;20387;-76
2024/03/06 12:46:14;;;;;;;5.10;4.22;;;;;;;;;;10132037;28;20740;-75
2024/03/06 12:51:08;;;;;;;4.10;3.58;;;;;;;;;;10140093;28;20048;-76
2024/03/06 12:56:02;;;;;;;4.50;4.10;;;;;;;;;;10145524;28;20079;-76
2024/03/06 13:00:57;;;;;;;6.35;4.00;;;;;;;;;;10136393;28;20056;-76
2024/03/06 13:05:51;;;;;;;7.38;4.07;;;;;;;;;;10144834;28;20056;-76
2024/03/06 13:10:45;;;;;;;3.50;2.80;;;;;;;;;;10144410;28;20052;-75
2024/03/06 13:15:39;;;;;;;6.63;4.60;;;;;;;;;;10139209;28;20067;-75
2024/03/06 13:20:33;;;;;;;3.90;2.40;;;;;;;;;;10143826;28;20056;-74
2024/03/06 13:25:27;;;;;;;4.20;3.42;;;;;;;;;;10130230;28;20537;-75
2024/03/06 13:30:21;;;;;;;2.95;2.35;;;;;;;;;;10152522;28;20044;-76
2024/03/06 13:35:15;;;;;;;3.75;3.45;;;;;;;;;;10141694;28;20136;-76
2024/03/06 13:40:12;;;;;;;5.72;3.75;;;;;;;;;;10137213;28;20484;-76
2024/03/06 13:45:14;;;;;;;6.03;5.20;;;;;;;;;;10144638;28;20059;-75
2024/03/06 13:50:25;;;;;;;6.22;5.63;;;;;;;;;;10149769;28;20097;-76
2024/03/06 13:55:19;;;;;;;7.72;6.25;;;;;;;;;;10149969;28;20154;-76
2024/03/06 14:00:19;;;;;;;6.22;5.00;;;;;;;;;;10150286;28;20076;-76
2024/03/06 14:05:12;;;;;;;8.98;5.10;;;;;;;;;;10138095;28;20094;-76
2024/03/06 14:10:08;;;;;;;4.15;2.90;;;;;;;;;;10150903;28;20098;-75
2024/03/06 14:15:03;;;;;;;3.13;2.78;;;;;;;;;;10139074;28;20052;-75
2024/03/06 14:19:58;;;;;;;4.28;3.70;;;;;;;;;;10150566;28;20052;-76
2024/03/06 14:24:53;;;;;;;4.43;4.03;;;;;;;;;;10149401;28;20183;-77
2024/03/06 14:29:46;;;;;;;3.60;3.17;;;;;;;;;;10133869;28;20048;-75
2024/03/06 14:34:40;;;;;;;3.45;3.13;;;;;;;;;;10143297;28;20041;-76
2024/03/06 14:39:34;;;;;;;3.90;2.83;;;;;;;;;;10144405;28;20037;-75
2024/03/06 14:44:28;;;;;;;4.40;3.15;;;;;;;;;;10142488;28;20088;-77
2024/03/06 14:49:22;;;;;;;7.10;6.18;;;;;;;;;;10142255;28;20044;-76
2024/03/06 14:54:16;;;;;;;5.63;4.20;;;;;;;;;;10148067;28;20082;-76
2024/03/06 14:59:10;;;;;;;11.57;9.18;;;;;;;;;;10148857;28;20067;-76
2024/03/06 15:04:04;;;;;;;4.63;3.35;;;;;;;;;;10147694;28;20052;-75
2024/03/06 15:08:58;;;;;;;8.00;5.38;;;;;;;;;;10148575;28;20135;-76
2024/03/06 15:13:52;;;;;;;7.07;4.13;;;;;;;;;;10147624;28;20412;-76
2024/03/06 15:18:48;;;;;;;2.78;2.30;;;;;;;;;;10148070;28;20060;-77
2024/03/06 15:23:44;;;;;;;4.85;3.05;;;;;;;;;;10148148;28;20056;-77
2024/03/06 15:28:39;;;;;;;3.00;2.75;;;;;;;;;;10130257;28;20051;-76
2024/03/06 15:33:33;;;;;;;5.05;2.97;;;;;;;;;;10141156;28;20049;-76
2024/03/06 15:38:27;;;;;;;3.45;3.15;;;;;;;;;;10141326;28;20128;-77
2024/03/06 15:43:20;;;;;;;3.90;2.92;;;;;;;;;;10141383;28;20049;-76
2024/03/06 15:48:15;;;;;;;5.82;2.47;;;;;;;;;;10138252;28;20407;-77
2024/03/06 15:53:09;;;;;;;3.10;2.30;;;;;;;;;;10141087;28;20044;-76
2024/03/06 15:58:05;;;;;;;5.25;2.55;;;;;;;;;;10137253;28;20049;-77
2024/03/06 16:02:59;;;;;;;3.08;2.38;;;;;;;;;;10142230;28;20143;-77
2024/03/06 16:08:17;;;;;;;2.35;1.77;;;;;;;;;;10138435;28;20048;-76
2024/03/06 16:13:11;;;;;;;4.20;2.72;;;;;;;;;;10138193;28;20047;-76
2024/03/06 16:18:06;;;;;;;3.55;2.63;;;;;;;;;;10135503;28;20057;-77
2024/03/06 16:23:03;;;;;;;3.08;2.00;;;;;;;;;;10139811;28;20057;-76
2024/03/06 16:27:57;;;;;;;2.17;1.98;;;;;;;;;;10141332;28;20044;-75
2024/03/06 16:32:52;;;;;;;3.08;2.53;;;;;;;;;;10139623;28;20131;-76
2024/03/06 16:37:49;;;;;;;2.10;1.90;;;;;;;;;;10140332;28;20055;-77
2024/03/06 16:42:44;;;;;;;2.15;1.80;;;;;;;;;;10141285;28;20052;-77
2024/03/06 16:47:38;;;;;;;2.00;1.80;;;;;;;;;;10146253;28;20051;-76
2024/03/06 16:52:52;;;;;;;2.20;1.77;;;;;;;;;;10139888;28;20543;-74
2024/03/06 16:57:46;;;;;;;4.45;2.00;;;;;;;;;;10136273;28;20079;-75
2024/03/06 17:02:40;;;;;;;3.30;2.17;;;;;;;;;;10141898;28;20495;-76
2024/03/06 17:07:34;;;;;;;3.13;2.63;;;;;;;;;;10140364;28;20037;-78
2024/03/06 17:12:28;;;;;;;3.38;1.83;;;;;;;;;;10142765;28;20511;-76
2024/03/06 17:17:22;;;;;;;2.42;2.22;;;;;;;;;;10126116;28;20295;-76
2024/03/06 17:22:16;;;;;;;2.60;2.33;;;;;;;;;;10132694;28;20423;-76
2024/03/06 17:27:10;;;;;;;5.38;3.28;;;;;;;;;;10142921;28;20036;-75
2024/03/06 17:32:06;;;;;;;4.22;3.83;;;;;;;;;;10141676;28;20048;-75
2024/03/06 17:37:05;;;;;;;6.82;3.22;;;;;;;;;;10143069;28;20056;-76
2024/03/06 17:41:58;;;;;;;3.92;3.55;;;;;;;;;;10141687;28;20048;-75
2024/03/06 17:46:52;;;;;;;3.25;2.83;;;;;;;;;;10132523;28;20377;-75
2024/03/06 17:51:46;;;;;;;4.35;3.67;;;;;;;;;;10137673;28;20048;-76
2024/03/06 17:56:40;;;;;;;9.05;5.05;;;;;;;;;;10138930;28;20049;-75
2024/03/06 18:01:35;;;;;;;5.00;3.33;;;;;;;;;;10133695;28;20045;-77
2024/03/06 18:06:29;;;;;;;4.22;3.80;;;;;;;;;;10140127;28;20048;-75
2024/03/06 18:11:23;;;;;;;4.20;3.35;;;;;;;;;;10141737;28;20048;-75
2024/03/06 18:16:16;;;;;;;9.18;5.38;;;;;;;;;;10137700;28;20448;-75
2024/03/06 18:21:11;;;;;;;6.05;5.25;;;;;;;;;;10141229;28;20052;-76
2024/03/06 18:26:05;;;;;;;8.77;5.07;;;;;;;;;;10139408;28;20409;-75
2024/03/06 18:30:59;;;;;;;8.20;4.70;;;;;;;;;;10146252;28;20044;-76
2024/03/06 18:35:55;;;;;;;6.60;5.15;;;;;;;;;;10139325;28;20091;-78
2024/03/06 18:40:51;;;;;;;7.50;4.88;;;;;;;;;;10147700;28;20059;-79
2024/03/06 18:45:46;;;;;;;10.07;5.32;;;;;;;;;;10137553;28;20053;-77
2024/03/06 18:50:40;;;;;;;7.50;4.55;;;;;;;;;;10145301;28;20190;-77
2024/03/06 18:55:37;;;;;;;12.40;4.60;;;;;;;;;;10146833;28;20056;-76
2024/03/06 19:00:30;;;;;;;7.30;4.80;;;;;;;;;;10146597;28;20040;-77
2024/03/06 19:05:24;;;;;;;6.78;4.38;;;;;;;;;;10145183;28;20044;-77
2024/03/06 19:10:18;;;;;;;9.25;5.38;;;;;;;;;;10142233;28;20044;-76
2024/03/06 19:15:13;;;;;;;12.18;7.28;;;;;;;;;;10132050;28;20056;-78
2024/03/06 19:20:12;;;;;;;6.45;4.68;;;;;;;;;;10139572;28;20095;-77
2024/03/06 19:25:09;;;;;;;8.73;4.63;;;;;;;;;;10141054;28;20111;-76
2024/03/06 19:30:09;;;;;;;5.18;3.30;;;;;;;;;;10145112;28;20540;-77
2024/03/06 19:35:04;;;;;;;5.28;3.17;;;;;;;;;;10141215;28;20470;-75
2024/03/06 19:39:58;;;;;;;4.28;3.33;;;;;;;;;;10139488;28;20131;-75
2024/03/06 19:44:53;;;;;;;7.45;5.93;;;;;;;;;;10136800;28;20048;-76
2024/03/06 19:49:47;;;;;;;7.78;5.03;;;;;;;;;;10144075;28;20049;-75
2024/03/06 19:54:41;;;;;;;4.15;3.75;;;;;;;;;;10137970;28;20144;-73
2024/03/06 19:59:36;;;;;;;5.05;4.20;;;;;;;;;;10154243;28;20083;-76
2024/03/06 20:04:31;;;;;;;6.78;4.53;;;;;;;;;;10144582;28;20045;-78
2024/03/06 20:09:27;;;;;;;5.18;3.97;;;;;;;;;;10140739;28;20431;-76
2024/03/06 20:14:21;;;;;;;10.13;5.63;;;;;;;;;;10122528;28;20131;-73
2024/03/06 20:19:17;;;;;;;4.97;3.72;;;;;;;;;;10141314;28;20055;-76
2024/03/06 20:24:12;;;;;;;4.88;4.38;;;;;;;;;;10139769;28;20428;-74
2024/03/06 20:29:06;;;;;;;9.25;4.75;;;;;;;;;;10143583;28;20076;-77
2024/03/06 20:33:59;;;;;;;6.15;3.35;;;;;;;;;;10140416;28;20137;-76
2024/03/06 20:38:54;;;;;;;6.32;4.07;;;;;;;;;;10143442;28;20584;-76
2024/03/06 20:43:49;;;;;;;4.05;3.22;;;;;;;;;;10140560;28;20052;-77
2024/03/06 20:48:44;;;;;;;5.68;3.70;;;;;;;;;;10140285;28;20120;-77
2024/03/06 20:53:38;;;;;;;6.07;3.42;;;;;;;;;;10144021;28;20045;-77
2024/03/06 20:58:32;;;;;;;6.10;3.83;;;;;;;;;;10124652;28;20049;-77
2024/03/06 21:03:26;;;;;;;8.95;4.78;;;;;;;;;;10134034;28;20058;-77
2024/03/06 21:08:20;;;;;;;4.97;3.75;;;;;;;;;;10138088;28;20131;-76
2024/03/06 21:13:17;;;;;;;6.18;4.15;;;;;;;;;;10144019;28;20059;-76
2024/03/06 21:18:11;;;;;;;5.57;3.60;;;;;;;;;;10134591;28;20048;-76
2024/03/06 21:23:06;;;;;;;5.05;3.58;;;;;;;;;;10143871;28;20080;-76
2024/03/06 21:28:00;;;;;;;3.10;2.78;;;;;;;;;;10136511;28;20500;-76
2024/03/06 21:32:53;;;;;;;3.95;3.35;;;;;;;;;;10137834;28;20060;-77
2024/03/06 21:37:48;;;;;;;4.35;3.83;;;;;;;;;;10143053;28;20045;-78
2024/03/06 21:42:44;;;;;;;5.88;3.45;;;;;;;;;;10143338;28;20496;-77
2024/03/06 21:47:40;;;;;;;2.63;2.40;;;;;;;;;;10133062;28;20073;-78
2024/03/06 21:52:35;;;;;;;5.10;2.90;;;;;;;;;;10143182;28;20045;-76
2024/03/06 21:57:29;;;;;;;5.70;3.33;;;;;;;;;;10142722;28;20407;-78
2024/03/06 22:02:23;;;;;;;4.40;2.60;;;;;;;;;;10136143;28;20136;-79
2024/03/06 22:07:17;;;;;;;6.25;3.50;;;;;;;;;;10150303;28;20052;-77
2024/03/06 22:12:12;;;;;;;4.95;3.83;;;;;;;;;;10149698;28;20105;-77
2024/03/06 22:17:07;;;;;;;4.25;3.20;;;;;;;;;;10150452;28;20496;-77
2024/03/06 22:22:01;;;;;;;4.22;3.20;;;;;;;;;;10150391;28;20555;-77
2024/03/06 22:26:54;;;;;;;5.22;3.85;;;;;;;;;;10147122;28;20056;-77
2024/03/06 22:31:49;;;;;;;8.38;4.60;;;;;;;;;;10149500;28;20067;-77
2024/03/06 22:36:42;;;;;;;5.43;3.72;;;;;;;;;;10146028;28;20056;-77
2024/03/06 22:41:37;;;;;;;7.63;3.85;;;;;;;;;;10147056;28;20051;-76
2024/03/06 22:46:32;;;;;;;5.63;3.65;;;;;;;;;;10148150;28;20106;-77
2024/03/06 22:51:42;;;;;;;3.78;3.33;;;;;;;;;;10149519;28;20172;-76
2024/03/06 22:56:39;;;;;;;4.95;4.40;;;;;;;;;;10148561;28;20040;-76
2024/03/06 23:01:33;;;;;;;4.55;3.80;;;;;;;;;;10148193;28;20076;-77
2024/03/06 23:06:27;;;;;;;10.60;4.13;;;;;;;;;;10148786;28;20052;-76
2024/03/06 23:11:21;;;;;;;3.70;3.20;;;;;;;;;;10147879;28;20052;-76
2024/03/06 23:16:15;;;;;;;4.03;2.90;;;;;;;;;;10148069;28;20040;-76
2024/03/06 23:21:10;;;;;;;6.30;3.63;;;;;;;;;;10141984;28;20458;-76
2024/03/06 23:26:04;;;;;;;5.68;3.47;;;;;;;;;;10148593;28;20052;-75
2024/03/06 23:30:59;;;;;;;3.63;2.90;;;;;;;;;;10147609;28;20044;-77
2024/03/06 23:35:54;;;;;;;4.82;3.28;;;;;;;;;;10138368;28;20045;-77
2024/03/06 23:40:49;;;;;;;7.68;4.43;;;;;;;;;;10147111;28;20040;-77
2024/03/06 23:45:44;;;;;;;6.55;4.40;;;;;;;;;;10147458;28;20457;-75
2024/03/06 23:50:38;;;;;;;6.38;4.75;;;;;;;;;;10143997;28;20051;-76
2024/03/06 23:55:34;;;;;;;6.90;4.80;;;;;;;;;;10145505;28;20397;-78
